sensor_id;sensor_type;location;lat;lon;timestamp;temperature;humidity
1958;DHT22;979;51.076;13.748;2024-01-10T00:01:15;-7.20;53.10
1958;DHT22;979;51.076;13.748;2024-01-10T00:03:45;-7.30;53.10
1958;DHT22;979;51.076;13.748;2024-01-10T00:06:13;-7.30;53.00
1958;DHT22;979;51.076;13.748;2024-01-10T00:08:42;-7.30;53.10
1958;DHT22;979;51.076;13.748;2024-01-10T00:11:10;-7.30;53.20
1958;DHT22;979;51.076;13.748;2024-01-10T00:13:39;-7.20;53.10
1958;DHT22;979;51.076;13.748;2024-01-10T00:16:07;-7.30;53.10
1958;DHT22;979;51.076;13.748;2024-01-10T00:18:35;-7.40;53.00
1958;DHT22;979;51.076;13.748;2024-01-10T00:21:06;-7.40;53.10
1958;DHT22;979;51.076;13.748;2024-01-10T00:23:34;-7.40;53.10
1958;DHT22;979;51.076;13.748;2024-01-10T00:26:03;-7.40;53.00
1958;DHT22;979;51.076;13.748;2024-01-10T00:28:31;-7.40;53.00
1958;DHT22;979;51.076;13.748;2024-01-10T00:31:03;-7.40;53.00
1958;DHT22;979;51.076;13.748;2024-01-10T00:33:31;-7.40;53.00
1958;DHT22;979;51.076;13.748;2024-01-10T00:36:00;-7.40;53.10
1958;DHT22;979;51.076;13.748;2024-01-10T00:38:30;-7.50;52.90
1958;DHT22;979;51.076;13.748;2024-01-10T00:40:58;-7.50;52.90
1958;DHT22;979;51.076;13.748;2024-01-10T00:43:27;-7.50;52.90
1958;DHT22;979;51.076;13.748;2024-01-10T00:45:55;-7.50;52.90
1958;DHT22;979;51.076;13.748;2024-01-10T00:48:26;-7.60;52.90
1958;DHT22;979;51.076;13.748;2024-01-10T00:50:55;-7.50;52.90
1958;DHT22;979;51.076;13.748;2024-01-10T00:53:23;-7.60;52.90
1958;DHT22;979;51.076;13.748;2024-01-10T00:55:53;-7.60;52.90
1958;DHT22;979;51.076;13.748;2024-01-10T00:58:21;-7.60;53.00
1958;DHT22;979;51.076;13.748;2024-01-10T01:00:49;-7.60;53.00
1958;DHT22;979;51.076;13.748;2024-01-10T01:03:36;-7.60;53.10
1958;DHT22;979;51.076;13.748;2024-01-10T01:09:24;-7.70;52.90
1958;DHT22;979;51.076;13.748;2024-01-10T01:11:54;-7.60;52.90
1958;DHT22;979;51.076;13.748;2024-01-10T01:14:22;-7.70;53.00
1958;DHT22;979;51.076;13.748;2024-01-10T01:16:51;-7.60;53.00
1958;DHT22;979;51.076;13.748;2024-01-10T01:19:25;-7.50;53.20
1958;DHT22;979;51.076;13.748;2024-01-10T04:50:51;-8.40;52.90
1958;DHT22;979;51.076;13.748;2024-01-10T04:53:19;-8.40;53.00
1958;DHT22;979;51.076;13.748;2024-01-10T04:55:48;-8.40;53.00
1958;DHT22;979;51.076;13.748;2024-01-10T04:58:18;-8.40;53.00
1958;DHT22;979;51.076;13.748;2024-01-10T05:00:46;-8.40;53.00
1958;DHT22;979;51.076;13.748;2024-01-10T05:03:15;-8.50;52.90
1958;DHT22;979;51.076;13.748;2024-01-10T05:05:44;-8.50;52.90
1958;DHT22;979;51.076;13.748;2024-01-10T05:08:14;-8.50;52.90
1958;DHT22;979;51.076;13.748;2024-01-10T05:10:42;-8.50;52.90
1958;DHT22;979;51.076;13.748;2024-01-10T05:13:10;-8.50;52.90
1958;DHT22;979;51.076;13.748;2024-01-10T05:15:41;-8.50;52.90
1958;DHT22;979;51.076;13.748;2024-01-10T05:18:09;-8.50;53.00
1958;DHT22;979;51.076;13.748;2024-01-10T05:20:38;-8.50;53.00
1958;DHT22;979;51.076;13.748;2024-01-10T05:23:07;-8.50;53.00
1958;DHT22;979;51.076;13.748;2024-01-10T05:25:36;-8.30;53.20
1958;DHT22;979;51.076;13.748;2024-01-10T05:28:05;-8.50;53.20
1958;DHT22;979;51.076;13.748;2024-01-10T05:30:34;-8.50;53.10
1958;DHT22;979;51.076;13.748;2024-01-10T05:33:02;-8.50;53.10
1958;DHT22;979;51.076;13.748;2024-01-10T05:35:31;-8.50;53.00
1958;DHT22;979;51.076;13.748;2024-01-10T05:37:59;-8.50;53.10
1958;DHT22;979;51.076;13.748;2024-01-10T05:40:30;-8.60;53.10
1958;DHT22;979;51.076;13.748;2024-01-10T05:43:02;-8.60;53.10
1958;DHT22;979;51.076;13.748;2024-01-10T05:45:30;-8.60;53.20
1958;DHT22;979;51.076;13.748;2024-01-10T05:47:59;-8.60;53.30
1958;DHT22;979;51.076;13.748;2024-01-10T05:50:27;-8.60;53.30
1958;DHT22;979;51.076;13.748;2024-01-10T05:52:58;-8.60;53.30
1958;DHT22;979;51.076;13.748;2024-01-10T05:55:27;-8.60;53.40
1958;DHT22;979;51.076;13.748;2024-01-10T05:57:55;-8.60;53.30
1958;DHT22;979;51.076;13.748;2024-01-10T06:00:27;-8.60;53.30
1958;DHT22;979;51.076;13.748;2024-01-10T06:02:56;-8.60;53.40
1958;DHT22;979;51.076;13.748;2024-01-10T06:05:24;-8.60;53.30
1958;DHT22;979;51.076;13.748;2024-01-10T06:07:52;-8.60;53.40
1958;DHT22;979;51.076;13.748;2024-01-10T06:10:21;-8.60;53.40
1958;DHT22;979;51.076;13.748;2024-01-10T06:12:49;-8.60;53.40
1958;DHT22;979;51.076;13.748;2024-01-10T06:15:18;-8.60;53.40
1958;DHT22;979;51.076;13.748;2024-01-10T06:17:47;-8.60;53.40
1958;DHT22;979;51.076;13.748;2024-01-10T06:20:20;-8.50;53.40
1958;DHT22;979;51.076;13.748;2024-01-10T06:22:50;-8.50;53.50
1958;DHT22;979;51.076;13.748;2024-01-10T06:25:19;-8.50;53.50
1958;DHT22;979;51.076;13.748;2024-01-10T06:27:47;-8.50;53.40
1958;DHT22;979;51.076;13.748;2024-01-10T06:30:16;-8.40;53.50
1958;DHT22;979;51.076;13.748;2024-01-10T06:32:44;-8.40;53.50
1958;DHT22;979;51.076;13.748;2024-01-10T06:35:14;-8.40;53.40
1958;DHT22;979;51.076;13.748;2024-01-10T06:37:43;-8.40;53.40
1958;DHT22;979;51.076;13.748;2024-01-10T06:40:12;-8.50;53.40
1958;DHT22;979;51.076;13.748;2024-01-10T06:42:40;-8.40;53.40
1958;DHT22;979;51.076;13.748;2024-01-10T06:45:09;-8.40;53.40
1958;DHT22;979;51.076;13.748;2024-01-10T06:47:39;-8.40;53.50
1958;DHT22;979;51.076;13.748;2024-01-10T06:50:09;-8.40;53.50
1958;DHT22;979;51.076;13.748;2024-01-10T06:52:39;-8.40;53.50
1958;DHT22;979;51.076;13.748;2024-01-10T06:55:08;-8.50;53.60
1958;DHT22;979;51.076;13.748;2024-01-10T06:57:36;-8.40;53.70
1958;DHT22;979;51.076;13.748;2024-01-10T07:00:06;-8.30;53.70
1958;DHT22;979;51.076;13.748;2024-01-10T07:02:38;-8.30;53.70
1958;DHT22;979;51.076;13.748;2024-01-10T07:05:08;-8.30;53.70
1958;DHT22;979;51.076;13.748;2024-01-10T07:07:36;-8.20;53.60
1958;DHT22;979;51.076;13.748;2024-01-10T07:10:07;-8.20;53.60
1958;DHT22;979;51.076;13.748;2024-01-10T07:12:36;-8.20;53.60
1958;DHT22;979;51.076;13.748;2024-01-10T07:15:08;-8.30;53.50
1958;DHT22;979;51.076;13.748;2024-01-10T07:17:37;-8.20;53.60
1958;DHT22;979;51.076;13.748;2024-01-10T07:20:08;-8.30;53.60
1958;DHT22;979;51.076;13.748;2024-01-10T07:22:39;-8.20;53.70
1958;DHT22;979;51.076;13.748;2024-01-10T07:25:10;-8.00;53.90
1958;DHT22;979;51.076;13.748;2024-01-10T07:27:41;-8.10;53.80
1958;DHT22;979;51.076;13.748;2024-01-10T07:30:12;-8.10;53.80
1958;DHT22;979;51.076;13.748;2024-01-10T07:32:42;-8.10;53.80
1958;DHT22;979;51.076;13.748;2024-01-10T07:35:11;-8.10;53.80
1958;DHT22;979;51.076;13.748;2024-01-10T07:37:41;-8.00;53.80
1958;DHT22;979;51.076;13.748;2024-01-10T07:40:12;-8.00;53.80
1958;DHT22;979;51.076;13.748;2024-01-10T07:42:40;-7.90;53.90
1958;DHT22;979;51.076;13.748;2024-01-10T07:45:09;-7.90;53.90
1958;DHT22;979;51.076;13.748;2024-01-10T07:47:38;-7.80;54.00
1958;DHT22;979;51.076;13.748;2024-01-10T07:50:07;-7.70;54.10
1958;DHT22;979;51.076;13.748;2024-01-10T07:52:39;-7.70;54.10
1958;DHT22;979;51.076;13.748;2024-01-10T07:55:09;-7.70;54.10
1958;DHT22;979;51.076;13.748;2024-01-10T07:57:39;-7.60;54.20
1958;DHT22;979;51.076;13.748;2024-01-10T08:00:09;-7.60;54.20
1958;DHT22;979;51.076;13.748;2024-01-10T08:02:38;-7.50;54.30
1958;DHT22;979;51.076;13.748;2024-01-10T08:05:07;-7.40;54.30
1958;DHT22;979;51.076;13.748;2024-01-10T08:07:37;-7.40;54.40
1958;DHT22;979;51.076;13.748;2024-01-10T08:10:06;-7.30;54.40
1958;DHT22;979;51.076;13.748;2024-01-10T08:12:35;-7.20;54.50
1958;DHT22;979;51.076;13.748;2024-01-10T08:15:06;-7.10;54.60
1958;DHT22;979;51.076;13.748;2024-01-10T08:17:34;-7.10;54.50
1958;DHT22;979;51.076;13.748;2024-01-10T08:20:08;-7.00;54.60
1958;DHT22;979;51.076;13.748;2024-01-10T08:22:38;-6.90;54.60
1958;DHT22;979;51.076;13.748;2024-01-10T08:25:13;-6.90;54.70
1958;DHT22;979;51.076;13.748;2024-01-10T08:27:46;-7.00;54.70
1958;DHT22;979;51.076;13.748;2024-01-10T08:30:17;-6.70;54.80
1958;DHT22;979;51.076;13.748;2024-01-10T08:32:45;-6.60;54.90
1958;DHT22;979;51.076;13.748;2024-01-10T08:35:16;-6.50;55.00
1958;DHT22;979;51.076;13.748;2024-01-10T08:37:46;-6.40;55.10
1958;DHT22;979;51.076;13.748;2024-01-10T08:40:15;-6.30;55.20
1958;DHT22;979;51.076;13.748;2024-01-10T08:42:46;-6.20;55.30
1958;DHT22;979;51.076;13.748;2024-01-10T08:45:14;-6.10;55.30
1958;DHT22;979;51.076;13.748;2024-01-10T08:47:46;-5.80;55.50
1958;DHT22;979;51.076;13.748;2024-01-10T08:50:15;-5.80;56.10
1958;DHT22;979;51.076;13.748;2024-01-10T08:52:43;-5.70;55.60
1958;DHT22;979;51.076;13.748;2024-01-10T08:55:11;-5.70;55.50
1958;DHT22;979;51.076;13.748;2024-01-10T08:57:40;-5.50;55.70
1958;DHT22;979;51.076;13.748;2024-01-10T09:00:09;-5.50;55.80
1958;DHT22;979;51.076;13.748;2024-01-10T09:02:39;-5.30;55.90
1958;DHT22;979;51.076;13.748;2024-01-10T09:05:11;-5.20;56.10
1958;DHT22;979;51.076;13.748;2024-01-10T09:07:39;-5.10;56.10
1958;DHT22;979;51.076;13.748;2024-01-10T09:10:09;-5.00;56.20
1958;DHT22;979;51.076;13.748;2024-01-10T09:12:38;-4.90;56.20
1958;DHT22;979;51.076;13.748;2024-01-10T09:15:10;-4.90;56.20
1958;DHT22;979;51.076;13.748;2024-01-10T09:17:41;-4.80;56.30
1958;DHT22;979;51.076;13.748;2024-01-10T09:20:11;-4.50;56.50
1958;DHT22;979;51.076;13.748;2024-01-10T09:22:40;-4.60;56.40
1958;DHT22;979;51.076;13.748;2024-01-10T09:25:11;-4.50;56.40
1958;DHT22;979;51.076;13.748;2024-01-10T09:27:40;-4.40;56.50
1958;DHT22;979;51.076;13.748;2024-01-10T09:30:11;-4.30;56.50
1958;DHT22;979;51.076;13.748;2024-01-10T09:32:40;-4.20;56.50
1958;DHT22;979;51.076;13.748;2024-01-10T09:35:10;-4.10;56.60
1958;DHT22;979;51.076;13.748;2024-01-10T09:37:39;-4.00;56.60
1958;DHT22;979;51.076;13.748;2024-01-10T09:40:09;-4.00;56.50
1958;DHT22;979;51.076;13.748;2024-01-10T09:42:39;-3.90;56.50
1958;DHT22;979;51.076;13.748;2024-01-10T09:45:10;-3.80;56.60
1958;DHT22;979;51.076;13.748;2024-01-10T09:47:40;-3.80;56.60
1958;DHT22;979;51.076;13.748;2024-01-10T09:50:11;-3.70;56.70
1958;DHT22;979;51.076;13.748;2024-01-10T09:52:44;-3.50;56.90
1958;DHT22;979;51.076;13.748;2024-01-10T09:55:14;-3.60;56.70
1958;DHT22;979;51.076;13.748;2024-01-10T09:57:44;-3.50;56.80
1958;DHT22;979;51.076;13.748;2024-01-10T10:00:15;-3.50;56.70
1958;DHT22;979;51.076;13.748;2024-01-10T10:02:46;-3.40;56.80
1958;DHT22;979;51.076;13.748;2024-01-10T10:05:17;-3.40;56.80
1958;DHT22;979;51.076;13.748;2024-01-10T10:07:47;-3.30;57.00
1958;DHT22;979;51.076;13.748;2024-01-10T10:10:16;-3.20;56.90
1958;DHT22;979;51.076;13.748;2024-01-10T10:12:46;-3.10;57.00
1958;DHT22;979;51.076;13.748;2024-01-10T10:15:16;-3.00;57.00
1958;DHT22;979;51.076;13.748;2024-01-10T10:17:46;-2.90;57.10
1958;DHT22;979;51.076;13.748;2024-01-10T10:20:20;-2.60;57.20
1958;DHT22;979;51.076;13.748;2024-01-10T10:23:07;-2.60;57.20
1958;DHT22;979;51.076;13.748;2024-01-10T10:25:43;-2.70;57.00
1958;DHT22;979;51.076;13.748;2024-01-10T10:28:11;-2.50;57.10
1958;DHT22;979;51.076;13.748;2024-01-10T10:30:55;-2.50;57.10
1958;DHT22;979;51.076;13.748;2024-01-10T10:33:24;-2.40;57.20
1958;DHT22;979;51.076;13.748;2024-01-10T10:35:55;-2.30;57.10
1958;DHT22;979;51.076;13.748;2024-01-10T10:38:23;-2.20;57.10
1958;DHT22;979;51.076;13.748;2024-01-10T10:40:52;-2.20;57.10
1958;DHT22;979;51.076;13.748;2024-01-10T10:43:21;-2.00;57.20
1958;DHT22;979;51.076;13.748;2024-01-10T10:45:50;-2.10;57.10
1958;DHT22;979;51.076;13.748;2024-01-10T10:48:19;-1.80;57.20
1958;DHT22;979;51.076;13.748;2024-01-10T10:50:58;-1.90;57.20
1958;DHT22;979;51.076;13.748;2024-01-10T10:53:28;-1.90;57.10
1958;DHT22;979;51.076;13.748;2024-01-10T10:55:57;-1.80;57.20
1958;DHT22;979;51.076;13.748;2024-01-10T10:58:27;-1.80;57.20
1958;DHT22;979;51.076;13.748;2024-01-10T11:00:57;-1.70;57.20
1958;DHT22;979;51.076;13.748;2024-01-10T11:03:27;-1.60;57.40
1958;DHT22;979;51.076;13.748;2024-01-10T11:05:58;-1.50;57.30
1958;DHT22;979;51.076;13.748;2024-01-10T11:08:32;-1.50;57.20
1958;DHT22;979;51.076;13.748;2024-01-10T11:11:05;-1.40;57.20
1958;DHT22;979;51.076;13.748;2024-01-10T11:13:46;-1.30;57.20
1958;DHT22;979;51.076;13.748;2024-01-10T11:19:48;-1.20;57.20
1958;DHT22;979;51.076;13.748;2024-01-10T11:22:39;-1.10;57.10
1958;DHT22;979;51.076;13.748;2024-01-10T11:25:09;-1.00;57.20
1958;DHT22;979;51.076;13.748;2024-01-10T11:27:37;-0.70;57.40
1958;DHT22;979;51.076;13.748;2024-01-10T11:30:06;-0.80;57.30
1958;DHT22;979;51.076;13.748;2024-01-10T11:32:35;-0.70;57.30
1958;DHT22;979;51.076;13.748;2024-01-10T11:35:10;-0.70;57.30
1958;DHT22;979;51.076;13.748;2024-01-10T11:37:45;-0.60;57.20
1958;DHT22;979;51.076;13.748;2024-01-10T11:40:13;-0.50;57.30
1958;DHT22;979;51.076;13.748;2024-01-10T11:42:43;-0.50;57.40
1958;DHT22;979;51.076;13.748;2024-01-10T11:45:36;-0.50;57.20
1958;DHT22;979;51.076;13.748;2024-01-10T11:48:07;-0.40;57.30
1958;DHT22;979;51.076;13.748;2024-01-10T11:50:39;-0.10;57.50
1958;DHT22;979;51.076;13.748;2024-01-10T11:53:10;0.00;58.40
1958;DHT22;979;51.076;13.748;2024-01-10T11:55:50;0.90;60.20
1958;DHT22;979;51.076;13.748;2024-01-10T11:58:18;2.30;60.60
1958;DHT22;979;51.076;13.748;2024-01-10T12:00:47;3.80;60.20
1958;DHT22;979;51.076;13.748;2024-01-10T12:03:16;5.10;59.60
1958;DHT22;979;51.076;13.748;2024-01-10T12:05:45;6.50;59.50
1958;DHT22;979;51.076;13.748;2024-01-10T12:08:19;7.60;59.20
1958;DHT22;979;51.076;13.748;2024-01-10T12:10:50;8.80;58.90
1958;DHT22;979;51.076;13.748;2024-01-10T12:13:18;9.80;58.70
1958;DHT22;979;51.076;13.748;2024-01-10T12:15:47;10.90;58.10
1958;DHT22;979;51.076;13.748;2024-01-10T12:18:15;12.00;58.30
1958;DHT22;979;51.076;13.748;2024-01-10T12:20:46;13.00;57.80
1958;DHT22;979;51.076;13.748;2024-01-10T12:23:14;14.10;57.40
1958;DHT22;979;51.076;13.748;2024-01-10T12:25:45;15.20;57.00
1958;DHT22;979;51.076;13.748;2024-01-10T12:28:16;16.30;56.30
1958;DHT22;979;51.076;13.748;2024-01-10T12:30:47;17.40;55.70
1958;DHT22;979;51.076;13.748;2024-01-10T12:33:16;18.40;54.90
1958;DHT22;979;51.076;13.748;2024-01-10T12:35:44;19.30;53.90
1958;DHT22;979;51.076;13.748;2024-01-10T12:38:31;20.10;52.70
1958;DHT22;979;51.076;13.748;2024-01-10T12:41:03;21.00;51.90
1958;DHT22;979;51.076;13.748;2024-01-10T12:43:35;21.70;50.30
1958;DHT22;979;51.076;13.748;2024-01-10T12:46:04;22.40;49.70
1958;DHT22;979;51.076;13.748;2024-01-10T12:48:33;23.00;48.10
1958;DHT22;979;51.076;13.748;2024-01-10T12:51:03;23.50;47.30
1958;DHT22;979;51.076;13.748;2024-01-10T12:53:34;24.00;46.20
1958;DHT22;979;51.076;13.748;2024-01-10T12:56:06;24.30;45.20
1958;DHT22;979;51.076;13.748;2024-01-10T12:58:35;24.60;44.00
1958;DHT22;979;51.076;13.748;2024-01-10T13:01:04;24.70;43.10
1958;DHT22;979;51.076;13.748;2024-01-10T13:03:32;24.80;42.50
1958;DHT22;979;51.076;13.748;2024-01-10T13:06:03;24.80;41.70
1958;DHT22;979;51.076;13.748;2024-01-10T13:08:32;25.00;41.20
1958;DHT22;979;51.076;13.748;2024-01-10T13:11:05;24.10;39.60
1958;DHT22;979;51.076;13.748;2024-01-10T13:13:38;22.60;38.40
1958;DHT22;979;51.076;13.748;2024-01-10T13:16:09;21.50;39.30
1958;DHT22;979;51.076;13.748;2024-01-10T13:18:39;21.40;39.90
1958;DHT22;979;51.076;13.748;2024-01-10T13:21:08;21.70;39.50
1958;DHT22;979;51.076;13.748;2024-01-10T13:23:37;21.90;38.90
1958;DHT22;979;51.076;13.748;2024-01-10T13:26:07;22.10;38.60
1958;DHT22;979;51.076;13.748;2024-01-10T13:28:38;21.80;37.60
1958;DHT22;979;51.076;13.748;2024-01-10T13:31:10;20.70;36.20
1958;DHT22;979;51.076;13.748;2024-01-10T13:33:40;19.20;36.20
1958;DHT22;979;51.076;13.748;2024-01-10T13:36:13;17.50;34.90
1958;DHT22;979;51.076;13.748;2024-01-10T13:39:05;15.90;34.70
1958;DHT22;979;51.076;13.748;2024-01-10T13:43:02;14.30;34.20
1958;DHT22;979;51.076;13.748;2024-01-10T13:46:05;12.60;34.40
1958;DHT22;979;51.076;13.748;2024-01-10T13:49:30;11.20;35.40
1958;DHT22;979;51.076;13.748;2024-01-10T13:55:29;9.20;36.20
1958;DHT22;979;51.076;13.748;2024-01-10T13:58:31;8.50;36.90
1958;DHT22;979;51.076;13.748;2024-01-10T14:00:59;8.00;37.10
1958;DHT22;979;51.076;13.748;2024-01-10T14:03:27;7.50;37.30
1958;DHT22;979;51.076;13.748;2024-01-10T14:05:59;7.10;37.40
1958;DHT22;979;51.076;13.748;2024-01-10T14:08:28;6.80;37.60
1958;DHT22;979;51.076;13.748;2024-01-10T14:10:56;6.50;37.90
1958;DHT22;979;51.076;13.748;2024-01-10T14:13:24;6.20;38.00
1958;DHT22;979;51.076;13.748;2024-01-10T14:15:54;6.00;38.30
1958;DHT22;979;51.076;13.748;2024-01-10T14:18:22;5.80;38.40
1958;DHT22;979;51.076;13.748;2024-01-10T14:20:51;5.60;38.60
1958;DHT22;979;51.076;13.748;2024-01-10T14:23:20;5.50;38.70
1958;DHT22;979;51.076;13.748;2024-01-10T14:25:48;5.30;38.80
1958;DHT22;979;51.076;13.748;2024-01-10T14:28:19;5.20;39.00
1958;DHT22;979;51.076;13.748;2024-01-10T14:30:48;5.10;39.10
1958;DHT22;979;51.076;13.748;2024-01-10T14:33:18;5.10;39.40
1958;DHT22;979;51.076;13.748;2024-01-10T14:35:47;5.00;39.60
1958;DHT22;979;51.076;13.748;2024-01-10T14:38:15;5.20;39.90
1958;DHT22;979;51.076;13.748;2024-01-10T14:40:46;5.00;39.70
1958;DHT22;979;51.076;13.748;2024-01-10T14:43:15;4.90;39.80
1958;DHT22;979;51.076;13.748;2024-01-10T14:45:44;4.90;40.00
1958;DHT22;979;51.076;13.748;2024-01-10T14:48:13;4.80;39.90
1958;DHT22;979;51.076;13.748;2024-01-10T14:50:43;4.70;39.90
1958;DHT22;979;51.076;13.748;2024-01-10T14:53:11;4.60;40.10
1958;DHT22;979;51.076;13.748;2024-01-10T14:55:39;4.50;40.00
1958;DHT22;979;51.076;13.748;2024-01-10T14:58:08;4.60;40.40
1958;DHT22;979;51.076;13.748;2024-01-10T15:00:36;4.40;40.20
1958;DHT22;979;51.076;13.748;2024-01-10T15:03:08;4.30;40.40
1958;DHT22;979;51.076;13.748;2024-01-10T15:05:51;4.30;40.40
1958;DHT22;979;51.076;13.748;2024-01-10T15:08:20;4.20;40.40
1958;DHT22;979;51.076;13.748;2024-01-10T15:10:49;4.10;40.50
1958;DHT22;979;51.076;13.748;2024-01-10T15:13:17;4.00;40.60
1958;DHT22;979;51.076;13.748;2024-01-10T15:15:46;4.20;40.90
1958;DHT22;979;51.076;13.748;2024-01-10T15:18:15;4.10;40.90
1958;DHT22;979;51.076;13.748;2024-01-10T15:20:45;3.80;40.80
1958;DHT22;979;51.076;13.748;2024-01-10T15:23:15;3.70;40.80
1958;DHT22;979;51.076;13.748;2024-01-10T15:25:46;3.70;40.90
1958;DHT22;979;51.076;13.748;2024-01-10T15:28:16;3.50;40.90
1958;DHT22;979;51.076;13.748;2024-01-10T15:30:45;3.50;41.00
1958;DHT22;979;51.076;13.748;2024-01-10T15:33:14;3.60;41.20
1958;DHT22;979;51.076;13.748;2024-01-10T15:35:43;3.50;41.30
1958;DHT22;979;51.076;13.748;2024-01-10T15:38:11;3.30;41.20
1958;DHT22;979;51.076;13.748;2024-01-10T15:40:41;3.40;41.40
1958;DHT22;979;51.076;13.748;2024-01-10T15:43:09;3.00;41.40
1958;DHT22;979;51.076;13.748;2024-01-10T15:45:38;3.10;41.40
1958;DHT22;979;51.076;13.748;2024-01-10T15:48:06;3.00;41.50
1958;DHT22;979;51.076;13.748;2024-01-10T15:50:35;2.90;41.40
1958;DHT22;979;51.076;13.748;2024-01-10T15:53:03;2.80;41.50
1958;DHT22;979;51.076;13.748;2024-01-10T15:55:32;2.80;41.60
1958;DHT22;979;51.076;13.748;2024-01-10T15:58:05;2.70;41.60
1958;DHT22;979;51.076;13.748;2024-01-10T16:00:33;2.80;41.90
1958;DHT22;979;51.076;13.748;2024-01-10T16:03:02;2.50;41.90
1958;DHT22;979;51.076;13.748;2024-01-10T16:05:33;2.50;41.80
1958;DHT22;979;51.076;13.748;2024-01-10T16:08:02;2.60;42.10
1958;DHT22;979;51.076;13.748;2024-01-10T16:10:30;2.30;41.90
1958;DHT22;979;51.076;13.748;2024-01-10T16:12:59;2.20;42.00
1958;DHT22;979;51.076;13.748;2024-01-10T16:15:28;2.10;42.20
1958;DHT22;979;51.076;13.748;2024-01-10T16:17:57;2.10;42.30
1958;DHT22;979;51.076;13.748;2024-01-10T16:20:29;2.30;42.50
1958;DHT22;979;51.076;13.748;2024-01-10T16:22:58;2.00;42.50
1958;DHT22;979;51.076;13.748;2024-01-10T16:25:28;1.90;42.40
1958;DHT22;979;51.076;13.748;2024-01-10T16:27:59;1.90;42.70
1958;DHT22;979;51.076;13.748;2024-01-10T16:30:31;1.60;42.50
1958;DHT22;979;51.076;13.748;2024-01-10T16:33:10;1.70;42.60
1958;DHT22;979;51.076;13.748;2024-01-10T16:35:39;1.80;42.80
1958;DHT22;979;51.076;13.748;2024-01-10T16:38:12;1.80;42.90
1958;DHT22;979;51.076;13.748;2024-01-10T16:40:50;1.60;42.80
1958;DHT22;979;51.076;13.748;2024-01-10T16:43:18;1.50;42.80
1958;DHT22;979;51.076;13.748;2024-01-10T16:45:50;1.50;42.90
1958;DHT22;979;51.076;13.748;2024-01-10T16:48:19;1.40;42.90
1958;DHT22;979;51.076;13.748;2024-01-10T16:50:47;1.40;43.00
1958;DHT22;979;51.076;13.748;2024-01-10T16:53:19;1.40;43.10
1958;DHT22;979;51.076;13.748;2024-01-10T16:55:51;1.20;43.10
1958;DHT22;979;51.076;13.748;2024-01-10T16:58:22;1.20;43.10
1958;DHT22;979;51.076;13.748;2024-01-10T17:00:52;1.30;43.30
1958;DHT22;979;51.076;13.748;2024-01-10T17:03:20;1.00;43.10
1958;DHT22;979;51.076;13.748;2024-01-10T17:05:49;0.90;43.10
1958;DHT22;979;51.076;13.748;2024-01-10T17:08:17;1.00;43.30
1958;DHT22;979;51.076;13.748;2024-01-10T17:10:49;1.00;43.50
1958;DHT22;979;51.076;13.748;2024-01-10T17:13:17;1.00;43.60
1958;DHT22;979;51.076;13.748;2024-01-10T17:15:46;1.00;43.60
1958;DHT22;979;51.076;13.748;2024-01-10T17:18:16;1.00;43.70
1958;DHT22;979;51.076;13.748;2024-01-10T17:20:44;0.70;43.60
1958;DHT22;979;51.076;13.748;2024-01-10T17:23:13;0.60;43.70
1958;DHT22;979;51.076;13.748;2024-01-10T17:25:41;0.60;43.70
1958;DHT22;979;51.076;13.748;2024-01-10T17:28:10;0.50;43.90
1958;DHT22;979;51.076;13.748;2024-01-10T17:30:39;0.40;43.90
1958;DHT22;979;51.076;13.748;2024-01-10T17:33:08;0.40;44.10
1958;DHT22;979;51.076;13.748;2024-01-10T17:35:39;0.30;44.30
1958;DHT22;979;51.076;13.748;2024-01-10T17:38:08;0.50;44.40
1958;DHT22;979;51.076;13.748;2024-01-10T17:40:36;0.30;44.40
1958;DHT22;979;51.076;13.748;2024-01-10T17:43:06;0.20;44.40
1958;DHT22;979;51.076;13.748;2024-01-10T17:45:35;0.30;44.70
1958;DHT22;979;51.076;13.748;2024-01-10T17:48:04;0.10;44.60
1958;DHT22;979;51.076;13.748;2024-01-10T17:50:33;0.10;44.60
1958;DHT22;979;51.076;13.748;2024-01-10T17:53:03;0.30;45.10
1958;DHT22;979;51.076;13.748;2024-01-10T17:55:36;-0.10;45.00
1958;DHT22;979;51.076;13.748;2024-01-10T17:58:16;-0.20;45.40
1958;DHT22;979;51.076;13.748;2024-01-10T18:00:45;-0.40;45.30
1958;DHT22;979;51.076;13.748;2024-01-10T18:03:13;-0.40;45.40
1958;DHT22;979;51.076;13.748;2024-01-10T18:05:43;-0.50;45.60
1958;DHT22;979;51.076;13.748;2024-01-10T18:08:13;-0.40;45.90
1958;DHT22;979;51.076;13.748;2024-01-10T18:10:43;-0.70;45.90
1958;DHT22;979;51.076;13.748;2024-01-10T18:13:12;-0.50;46.20
1958;DHT22;979;51.076;13.748;2024-01-10T18:15:42;-0.50;46.20
1958;DHT22;979;51.076;13.748;2024-01-10T18:18:22;-0.80;45.90
1958;DHT22;979;51.076;13.748;2024-01-10T18:21:01;-0.80;45.80
1958;DHT22;979;51.076;13.748;2024-01-10T18:23:45;-0.80;46.00
1958;DHT22;979;51.076;13.748;2024-01-10T18:26:13;-0.60;46.20
1958;DHT22;979;51.076;13.748;2024-01-10T18:28:42;-0.70;46.20
1958;DHT22;979;51.076;13.748;2024-01-10T18:31:10;-0.70;46.20
1958;DHT22;979;51.076;13.748;2024-01-10T18:33:41;-0.90;46.10
1958;DHT22;979;51.076;13.748;2024-01-10T18:36:10;-0.80;46.00
1958;DHT22;979;51.076;13.748;2024-01-10T18:38:58;-0.60;46.30
1958;DHT22;979;51.076;13.748;2024-01-10T18:41:48;-1.00;45.80
1958;DHT22;979;51.076;13.748;2024-01-10T18:44:19;-1.00;46.10
1958;DHT22;979;51.076;13.748;2024-01-10T18:46:49;-0.80;46.40
1958;DHT22;979;51.076;13.748;2024-01-10T18:49:18;-1.00;46.10
1958;DHT22;979;51.076;13.748;2024-01-10T18:51:47;-0.90;46.20
1958;DHT22;979;51.076;13.748;2024-01-10T18:54:17;-1.10;46.10
1958;DHT22;979;51.076;13.748;2024-01-10T18:56:46;-1.10;46.20
1958;DHT22;979;51.076;13.748;2024-01-10T18:59:15;-1.00;46.30
1958;DHT22;979;51.076;13.748;2024-01-10T19:01:44;-1.20;46.20
1958;DHT22;979;51.076;13.748;2024-01-10T19:04:15;-1.20;46.20
1958;DHT22;979;51.076;13.748;2024-01-10T19:06:47;-1.20;46.30
1958;DHT22;979;51.076;13.748;2024-01-10T19:09:22;-1.30;46.20
1958;DHT22;979;51.076;13.748;2024-01-10T19:11:50;-1.10;46.50
1958;DHT22;979;51.076;13.748;2024-01-10T19:14:19;-1.30;46.30
1958;DHT22;979;51.076;13.748;2024-01-10T19:16:56;-1.40;46.40
1958;DHT22;979;51.076;13.748;2024-01-10T19:19:33;-1.40;46.40
1958;DHT22;979;51.076;13.748;2024-01-10T19:22:19;-1.50;46.20
1958;DHT22;979;51.076;13.748;2024-01-10T19:24:50;-1.50;46.60
1958;DHT22;979;51.076;13.748;2024-01-10T19:27:19;-1.30;46.70
1958;DHT22;979;51.076;13.748;2024-01-10T19:30:10;-1.60;46.50
1958;DHT22;979;51.076;13.748;2024-01-10T19:32:49;-1.60;46.50
1958;DHT22;979;51.076;13.748;2024-01-10T19:35:27;-1.60;46.80
1958;DHT22;979;51.076;13.748;2024-01-10T19:38:00;-1.70;46.80
1958;DHT22;979;51.076;13.748;2024-01-10T19:40:30;-1.80;47.00
1958;DHT22;979;51.076;13.748;2024-01-10T19:42:59;-1.90;47.20
1958;DHT22;979;51.076;13.748;2024-01-10T19:45:27;-2.00;47.20
1958;DHT22;979;51.076;13.748;2024-01-10T19:47:59;-2.00;47.30
1958;DHT22;979;51.076;13.748;2024-01-10T19:50:27;-1.80;47.50
1958;DHT22;979;51.076;13.748;2024-01-10T19:52:58;-2.10;47.40
1958;DHT22;979;51.076;13.748;2024-01-10T19:55:33;-2.10;47.40
1958;DHT22;979;51.076;13.748;2024-01-10T19:58:06;-2.00;47.40
1958;DHT22;979;51.076;13.748;2024-01-10T20:00:48;-2.10;47.60
1958;DHT22;979;51.076;13.748;2024-01-10T20:03:17;-2.20;47.60
1958;DHT22;979;51.076;13.748;2024-01-10T20:05:45;-2.10;47.90
1958;DHT22;979;51.076;13.748;2024-01-10T20:08:14;-2.30;47.70
1958;DHT22;979;51.076;13.748;2024-01-10T20:10:44;-2.30;47.80